createdAt,value
2019-02-23T00:00:48.340Z,-1.78
2019-02-23T00:03:21.531Z,-1.81
2019-02-23T00:05:55.116Z,-1.82
2019-02-23T00:08:28.906Z,-1.84
2019-02-23T00:11:03.127Z,-1.87
2019-02-23T00:13:36.380Z,-1.89
2019-02-23T00:16:10.258Z,-1.88
2019-02-23T00:18:44.146Z,-1.89
2019-02-23T00:21:17.409Z,-1.91
2019-02-23T00:23:51.248Z,-1.92
2019-02-23T00:26:25.066Z,-1.96
2019-02-23T00:28:59.487Z,-2.00
2019-02-23T00:31:33.220Z,-2.02
2019-02-23T00:34:07.228Z,-2.02
2019-02-23T00:36:40.538Z,-2.04
2019-02-23T00:39:14.802Z,-2.03
2019-02-23T00:41:49.369Z,-2.04
2019-02-23T00:44:23.927Z,-2.04
2019-02-23T00:46:57.716Z,-2.03
2019-02-23T00:49:36.429Z,-2.09
2019-02-23T00:52:05.532Z,-2.10
2019-02-23T00:54:39.364Z,-2.12
2019-02-23T00:57:13.529Z,-2.15
2019-02-23T00:59:48.335Z,-2.14
2019-02-23T01:02:21.635Z,-2.15
2019-02-23T01:04:54.892Z,-2.18
2019-02-23T01:07:29.773Z,-2.19
2019-02-23T01:10:03.440Z,-2.23
2019-02-23T01:12:36.218Z,-2.23
2019-02-23T01:15:10.582Z,-2.24
2019-02-23T01:17:44.365Z,-2.21
2019-02-23T01:20:18.137Z,-2.24
2019-02-23T01:22:51.979Z,-2.22
2019-02-23T01:25:25.825Z,-2.22
2019-02-23T01:27:59.558Z,-2.22
2019-02-23T01:30:33.801Z,-2.23
2019-02-23T01:33:07.972Z,-2.25
2019-02-23T01:35:42.516Z,-2.27
2019-02-23T01:38:16.169Z,-2.27
2019-02-23T01:40:49.456Z,-2.31
2019-02-23T01:43:23.785Z,-2.33
2019-02-23T01:45:57.346Z,-2.35
2019-02-23T01:48:31.103Z,-2.36
2019-02-23T01:51:04.992Z,-2.37
2019-02-23T01:53:38.225Z,-2.39
2019-02-23T01:56:12.433Z,-2.41
2019-02-23T01:58:46.738Z,-2.41
2019-02-23T02:01:20.112Z,-2.43
2019-02-23T02:03:54.024Z,-2.44
2019-02-23T02:06:27.347Z,-2.45
2019-02-23T02:09:00.135Z,-2.47
2019-02-23T02:11:34.972Z,-2.47
2019-02-23T02:14:09.431Z,-2.47
2019-02-23T02:16:43.246Z,-2.44
2019-02-23T02:19:16.476Z,-2.45
2019-02-23T02:21:51.176Z,-2.44
2019-02-23T02:24:24.589Z,-2.43
2019-02-23T02:26:59.001Z,-2.42
2019-02-23T02:29:32.705Z,-2.42
2019-02-23T02:32:06.635Z,-2.42
2019-02-23T02:34:41.523Z,-2.39
2019-02-23T02:37:15.253Z,-2.38
2019-02-23T02:39:49.462Z,-2.33
2019-02-23T02:42:22.760Z,-2.31
2019-02-23T02:44:55.687Z,-2.27
2019-02-23T02:47:29.867Z,-2.24
2019-02-23T02:50:04.106Z,-2.23
2019-02-23T02:52:37.270Z,-2.20
2019-02-23T02:55:11.461Z,-2.21
2019-02-23T02:57:45.622Z,-2.21
2019-02-23T03:00:20.505Z,-2.16
2019-02-23T03:02:54.360Z,-2.14
2019-02-23T03:05:28.208Z,-2.12
2019-02-23T03:08:01.573Z,-2.15
2019-02-23T03:10:35.393Z,-2.14
2019-02-23T03:13:08.272Z,-2.13
2019-02-23T03:15:42.068Z,-2.16
2019-02-23T03:18:15.947Z,-2.17
2019-02-23T03:20:49.782Z,-2.19
2019-02-23T03:23:23.974Z,-2.19
2019-02-23T03:25:57.777Z,-2.18
2019-02-23T03:28:31.510Z,-2.18
2019-02-23T03:31:05.516Z,-2.18
2019-02-23T03:33:38.755Z,-2.21
2019-02-23T03:36:12.536Z,-2.24
2019-02-23T03:38:45.935Z,-2.27
2019-02-23T03:41:19.759Z,-2.29
2019-02-23T03:43:53.559Z,-2.30
2019-02-23T03:46:27.032Z,-2.31
2019-02-23T03:49:01.077Z,-2.33
2019-02-23T03:51:34.388Z,-2.31
2019-02-23T03:54:08.239Z,-2.33
2019-02-23T03:56:42.024Z,-2.35
2019-02-23T03:59:15.662Z,-2.35
2019-02-23T04:01:49.428Z,-2.35
2019-02-23T04:04:23.682Z,-2.35
2019-02-23T04:06:58.201Z,-2.38
2019-02-23T04:09:31.445Z,-2.37
2019-02-23T04:12:05.173Z,-2.38
2019-02-23T04:14:38.460Z,-2.41
2019-02-23T04:17:11.564Z,-2.42
2019-02-23T04:19:44.931Z,-2.44
2019-02-23T04:22:19.138Z,-2.46
2019-02-23T04:24:53.892Z,-2.50
2019-02-23T04:27:28.137Z,-2.51
2019-02-23T04:30:02.317Z,-2.51
2019-02-23T04:32:35.574Z,-2.56
2019-02-23T04:35:08.148Z,-2.56
2019-02-23T04:37:41.546Z,-2.56
2019-02-23T04:40:16.172Z,-2.59
2019-02-23T04:42:48.956Z,-2.61
2019-02-23T04:45:23.196Z,-2.63
2019-02-23T04:47:56.052Z,-2.66
2019-02-23T04:50:29.428Z,-2.68
2019-02-23T04:53:03.796Z,-2.70
2019-02-23T04:55:37.793Z,-2.72
2019-02-23T04:58:12.247Z,-2.74
2019-02-23T05:00:45.543Z,-2.76
2019-02-23T05:03:20.178Z,-2.77
2019-02-23T05:05:53.938Z,-2.78
2019-02-23T05:08:28.167Z,-2.81
2019-02-23T05:11:01.479Z,-2.84
2019-02-23T05:13:35.720Z,-2.85
2019-02-23T05:16:08.959Z,-2.87
2019-02-23T05:18:42.199Z,-2.89
2019-02-23T05:21:25.954Z,-2.90
2019-02-23T05:23:50.830Z,-2.92
2019-02-23T05:26:24.085Z,-2.93
2019-02-23T05:28:57.024Z,-2.93
2019-02-23T05:31:31.319Z,-2.94
2019-02-23T05:34:04.720Z,-2.93
2019-02-23T05:36:37.601Z,-2.93
2019-02-23T05:39:11.950Z,-2.93
2019-02-23T05:41:45.258Z,-2.93
2019-02-23T05:44:18.583Z,-2.92
2019-02-23T05:46:52.438Z,-2.94
2019-02-23T05:49:25.707Z,-2.97
2019-02-23T05:51:59.377Z,-2.98
2019-02-23T05:54:33.800Z,-2.97
2019-02-23T05:57:07.544Z,-2.97
2019-02-23T05:59:40.895Z,-2.97
2019-02-23T06:02:15.463Z,-2.98
2019-02-23T06:04:49.673Z,-2.99
2019-02-23T06:07:23.103Z,-2.97
2019-02-23T06:09:56.440Z,-2.95
2019-02-23T06:12:30.676Z,-2.86
2019-02-23T06:15:03.942Z,-2.80
2019-02-23T06:17:37.867Z,-2.77
2019-02-23T06:20:13.103Z,-2.74
2019-02-23T06:22:47.039Z,-2.68
2019-02-23T06:25:21.009Z,-2.61
2019-02-23T06:27:54.742Z,-2.56
2019-02-23T06:30:28.951Z,-2.50
2019-02-23T06:33:04.177Z,-2.48
2019-02-23T06:35:37.533Z,-2.45
2019-02-23T06:38:10.554Z,-2.42
2019-02-23T06:40:44.318Z,-2.39
2019-02-23T06:43:17.841Z,-2.38
2019-02-23T06:45:50.927Z,-2.32
2019-02-23T06:48:24.849Z,-2.29
2019-02-23T06:51:00.408Z,-2.26
2019-02-23T06:53:32.879Z,-2.23
2019-02-23T06:56:12.458Z,-2.17
2019-02-23T06:58:46.403Z,-2.11
2019-02-23T07:01:20.432Z,-2.07
2019-02-23T07:03:53.885Z,-2.01
2019-02-23T07:06:27.165Z,-2.01
2019-02-23T07:08:59.661Z,-1.95
2019-02-23T07:11:32.839Z,-1.88
2019-02-23T07:14:06.274Z,-1.81
2019-02-23T07:16:40.193Z,-1.72
2019-02-23T07:19:15.716Z,-1.70
2019-02-23T07:21:49.300Z,-1.64
2019-02-23T07:24:24.401Z,-1.59
2019-02-23T07:26:59.624Z,-1.56
2019-02-23T07:29:34.290Z,-1.52
2019-02-23T07:32:08.774Z,-1.49
2019-02-23T07:34:41.845Z,-1.43
2019-02-23T07:37:15.988Z,-1.38
2019-02-23T07:39:50.535Z,-1.34
2019-02-23T07:42:23.417Z,-1.29
2019-02-23T07:44:55.810Z,-1.24
2019-02-23T07:47:28.983Z,-1.20
2019-02-23T07:50:03.894Z,-1.20
2019-02-23T07:52:37.898Z,-1.17
2019-02-23T07:55:12.192Z,-1.17
2019-02-23T07:57:46.634Z,-1.14
2019-02-23T08:00:21.220Z,-1.22
2019-02-23T08:02:54.891Z,-1.24
2019-02-23T08:05:29.436Z,-1.24
2019-02-23T08:08:03.856Z,-1.22
2019-02-23T08:10:39.740Z,-1.19
2019-02-23T08:13:14.635Z,-1.24
2019-02-23T08:15:48.603Z,-1.25
2019-02-23T08:18:22.632Z,-1.26
2019-02-23T08:20:56.090Z,-1.27
2019-02-23T08:23:30.885Z,-1.27
2019-02-23T08:26:05.201Z,-1.27
2019-02-23T08:28:38.934Z,-1.23
2019-02-23T08:31:13.470Z,-1.21
2019-02-23T08:33:48.235Z,-1.24
2019-02-23T08:36:23.752Z,-1.20
2019-02-23T08:38:57.728Z,-1.15
2019-02-23T08:41:32.912Z,-1.12
2019-02-23T08:44:06.213Z,-1.09
2019-02-23T08:46:40.612Z,-1.10
2019-02-23T08:49:15.020Z,-1.03
2019-02-23T08:51:50.834Z,-0.99
2019-02-23T08:54:25.188Z,-0.97
2019-02-23T08:57:00.107Z,-0.94
2019-02-23T08:59:34.484Z,-0.91
2019-02-23T09:02:08.216Z,-0.88
2019-02-23T09:04:44.264Z,-0.83
2019-02-23T09:07:19.295Z,-0.84
2019-02-23T09:09:53.316Z,-0.84
2019-02-23T09:12:27.582Z,-0.84
2019-02-23T09:15:01.589Z,-0.82
2019-02-23T09:17:36.443Z,-0.78
2019-02-23T09:20:11.196Z,-0.77
2019-02-23T09:22:46.292Z,-0.81
2019-02-23T09:25:20.741Z,-0.78
2019-02-23T09:27:55.781Z,-0.69
2019-02-23T09:30:32.744Z,-0.64
2019-02-23T09:33:06.646Z,-0.62
2019-02-23T09:35:43.463Z,-0.56
2019-02-23T09:38:19.651Z,-0.53
2019-02-23T09:40:54.676Z,-0.50
2019-02-23T09:43:28.389Z,-0.47
2019-02-23T09:46:01.380Z,-0.43
2019-02-23T09:48:37.137Z,-0.36
2019-02-23T09:51:12.458Z,-0.30
2019-02-23T09:53:48.059Z,-0.22
2019-02-23T09:56:22.330Z,-0.18
2019-02-23T09:58:56.504Z,-0.17
2019-02-23T10:01:29.865Z,-0.14
2019-02-23T10:04:03.121Z,-0.03
2019-02-23T10:06:37.036Z,0.07
2019-02-23T10:09:11.431Z,0.20
2019-02-23T10:11:47.397Z,0.31
2019-02-23T10:14:21.530Z,0.49
2019-02-23T10:16:56.044Z,0.65
2019-02-23T10:19:30.624Z,0.75
2019-02-23T10:22:06.252Z,0.84
2019-02-23T10:24:40.985Z,0.99
2019-02-23T10:27:15.819Z,1.13
2019-02-23T10:29:50.393Z,1.25
2019-02-23T10:32:25.804Z,1.34
2019-02-23T10:35:00.148Z,1.47
2019-02-23T10:37:35.628Z,1.63
2019-02-23T10:40:10.188Z,1.67
2019-02-23T10:42:44.485Z,1.74
2019-02-23T10:45:17.789Z,1.76
2019-02-23T10:47:51.159Z,1.82
2019-02-23T10:50:25.181Z,1.94
2019-02-23T10:52:58.530Z,2.05
2019-02-23T10:55:33.740Z,2.07
2019-02-23T10:58:08.590Z,2.16
2019-02-23T11:00:42.219Z,2.30
2019-02-23T11:03:16.183Z,2.44
2019-02-23T11:05:51.044Z,2.60
2019-02-23T11:08:24.307Z,2.68
2019-02-23T11:10:58.339Z,2.70
2019-02-23T11:13:33.255Z,2.78
2019-02-23T11:16:08.815Z,2.86
2019-02-23T11:18:43.074Z,2.93
2019-02-23T11:21:18.243Z,2.98
2019-02-23T11:23:53.495Z,2.87
2019-02-23T11:26:27.984Z,2.82
2019-02-23T11:29:02.256Z,2.93
2019-02-23T11:31:38.164Z,3.04
2019-02-23T11:34:12.625Z,3.09
2019-02-23T11:36:48.008Z,3.18
2019-02-23T11:39:22.793Z,3.28
2019-02-23T11:41:57.671Z,3.39
2019-02-23T11:44:33.895Z,3.41
2019-02-23T11:47:09.032Z,3.46
2019-02-23T11:49:43.226Z,3.62
2019-02-23T11:52:18.103Z,3.87
2019-02-23T11:54:52.616Z,4.11
2019-02-23T11:57:27.743Z,4.20
2019-02-23T12:00:03.434Z,4.32
2019-02-23T12:02:38.590Z,4.54
2019-02-23T12:05:13.989Z,4.77
2019-02-23T12:07:48.986Z,5.06
2019-02-23T12:10:24.499Z,5.31
2019-02-23T12:12:58.271Z,5.39
2019-02-23T12:15:32.452Z,5.72
2019-02-23T12:18:06.189Z,6.14
2019-02-23T12:20:41.545Z,6.25
2019-02-23T12:23:16.469Z,6.45
2019-02-23T12:25:51.484Z,6.69
2019-02-23T12:28:26.642Z,6.79
2019-02-23T12:31:01.572Z,7.02
2019-02-23T12:33:37.186Z,7.06
2019-02-23T12:36:12.131Z,6.98
2019-02-23T12:38:46.436Z,7.22
2019-02-23T12:41:21.409Z,7.20
2019-02-23T12:43:56.400Z,7.66
2019-02-23T12:46:31.698Z,8.18
2019-02-23T12:49:07.145Z,8.56
2019-02-23T12:51:41.745Z,8.99
2019-02-23T12:54:17.233Z,9.10
2019-02-23T12:56:52.941Z,9.11
2019-02-23T12:59:29.725Z,9.07
2019-02-23T13:02:06.094Z,9.45
2019-02-23T13:04:41.109Z,9.43
2019-02-23T13:07:14.977Z,9.81
2019-02-23T13:10:04.682Z,10.32
2019-02-23T13:13:20.282Z,10.62
2019-02-23T13:16:32.062Z,10.76
2019-02-23T13:20:06.197Z,11.14
2019-02-23T13:23:55.475Z,11.34
2019-02-23T13:27:31.468Z,11.34
2019-02-23T13:31:19.118Z,11.15
2019-02-23T13:34:33.541Z,10.28
2019-02-23T13:38:05.397Z,10.09
2019-02-23T13:41:23.971Z,10.17
2019-02-23T13:45:04.262Z,10.14
2019-02-23T13:48:24.632Z,10.17
2019-02-23T13:52:08.613Z,10.04
2019-02-23T13:55:44.052Z,10.35
2019-02-23T13:58:49.435Z,10.69
2019-02-23T14:02:26.960Z,10.67
2019-02-23T14:06:01.526Z,10.23
2019-02-23T14:10:11.587Z,9.80
2019-02-23T14:13:18.283Z,9.10
2019-02-23T14:17:04.396Z,9.06
2019-02-23T14:20:53.442Z,8.79
2019-02-23T14:24:19.598Z,8.58
2019-02-23T14:28:00.814Z,8.54
2019-02-23T14:31:59.802Z,8.38
2019-02-23T14:35:27.101Z,8.34
2019-02-23T14:38:56.743Z,8.72
2019-02-23T14:42:17.079Z,9.04
2019-02-23T14:45:54.849Z,9.41
2019-02-23T14:49:36.071Z,9.69
2019-02-23T14:52:55.035Z,9.38
2019-02-23T14:56:16.693Z,9.18
2019-02-23T14:59:38.540Z,8.91
2019-02-23T15:03:10.734Z,8.58
2019-02-23T15:06:27.611Z,8.27
2019-02-23T15:09:45.573Z,8.04
2019-02-23T15:13:20.854Z,7.78
2019-02-23T15:16:59.479Z,7.44
2019-02-23T15:20:14.907Z,7.18
2019-02-23T15:23:55.465Z,7.04
2019-02-23T15:27:07.438Z,6.76
2019-02-23T15:30:25.504Z,6.39
2019-02-23T15:33:43.806Z,5.99
2019-02-23T15:37:03.474Z,5.65
2019-02-23T15:40:43.217Z,5.35
2019-02-23T15:44:08.726Z,5.17
2019-02-23T15:48:01.623Z,4.92
2019-02-23T15:50:40.524Z,4.61
2019-02-23T15:53:15.007Z,4.49
2019-02-23T15:55:49.435Z,4.39
2019-02-23T15:58:24.093Z,4.29
2019-02-23T16:00:58.706Z,4.19
2019-02-23T16:03:32.274Z,4.12
2019-02-23T16:06:07.149Z,4.06
2019-02-23T16:08:40.852Z,3.97
2019-02-23T16:11:14.503Z,3.92
2019-02-23T16:13:48.660Z,3.77
2019-02-23T16:16:22.826Z,3.67
2019-02-23T16:18:56.629Z,3.56
2019-02-23T16:21:29.820Z,3.48
2019-02-23T16:24:03.151Z,3.41
2019-02-23T16:26:36.474Z,3.32
2019-02-23T16:29:09.708Z,3.23
2019-02-23T16:31:42.814Z,3.13
2019-02-23T16:34:16.447Z,3.04
2019-02-23T16:36:50.459Z,2.99
2019-02-23T16:39:23.505Z,2.96
2019-02-23T16:41:56.856Z,2.90
2019-02-23T16:44:30.483Z,2.85
2019-02-23T16:47:04.208Z,2.79
2019-02-23T16:49:37.613Z,2.74
2019-02-23T16:52:12.386Z,2.68
2019-02-23T16:54:48.336Z,2.61
2019-02-23T16:57:24.531Z,2.48
2019-02-23T17:00:00.049Z,2.41
2019-02-23T17:02:36.179Z,2.32
2019-02-23T17:05:10.456Z,2.26
2019-02-23T17:07:45.433Z,2.23
2019-02-23T17:10:21.551Z,2.18
2019-02-23T17:12:55.793Z,2.13
2019-02-23T17:15:30.844Z,2.12
2019-02-23T17:18:05.811Z,2.10
2019-02-23T17:20:40.865Z,2.13
2019-02-23T17:23:16.128Z,2.12
2019-02-23T17:26:03.391Z,2.09
2019-02-23T17:28:27.965Z,2.09
2019-02-23T17:31:02.827Z,2.09
2019-02-23T17:33:37.991Z,2.10
2019-02-23T17:36:12.472Z,2.10
2019-02-23T17:38:46.911Z,2.11
2019-02-23T17:41:21.192Z,2.10
2019-02-23T17:43:56.190Z,2.11
2019-02-23T17:46:31.920Z,2.12
2019-02-23T17:49:07.082Z,2.07
2019-02-23T17:51:41.730Z,2.07
2019-02-23T17:54:15.150Z,2.05
2019-02-23T17:56:50.168Z,2.06
2019-02-23T17:59:25.374Z,2.05
2019-02-23T18:02:00.359Z,2.05
2019-02-23T18:04:34.246Z,2.05
2019-02-23T18:07:08.668Z,2.04
2019-02-23T18:09:43.774Z,2.05
2019-02-23T18:12:20.159Z,2.02
2019-02-23T18:14:55.952Z,1.99
2019-02-23T18:17:31.130Z,2.01
2019-02-23T18:20:05.490Z,1.99
2019-02-23T18:22:40.614Z,1.97
2019-02-23T18:25:16.238Z,1.99
2019-02-23T18:27:51.788Z,1.97
2019-02-23T18:30:26.919Z,1.95
2019-02-23T18:33:01.937Z,1.96
2019-02-23T18:35:37.755Z,1.93
2019-02-23T18:38:13.004Z,1.93
2019-02-23T18:40:47.866Z,1.94
2019-02-23T18:43:25.272Z,1.93
2019-02-23T18:45:59.040Z,1.96
2019-02-23T18:48:33.041Z,1.97
2019-02-23T18:51:08.423Z,1.99
2019-02-23T18:53:41.879Z,1.99
2019-02-23T18:56:15.154Z,1.97
2019-02-23T18:58:50.177Z,1.96
2019-02-23T19:01:23.624Z,1.96
2019-02-23T19:03:59.248Z,1.95
2019-02-23T19:06:35.509Z,1.94
2019-02-23T19:09:10.516Z,1.92
2019-02-23T19:11:46.409Z,1.93
2019-02-23T19:14:22.517Z,1.90
2019-02-23T19:16:56.427Z,1.88
2019-02-23T19:19:31.132Z,1.85
2019-02-23T19:22:05.542Z,1.83
2019-02-23T19:24:41.008Z,1.83
2019-02-23T19:27:17.078Z,1.81
2019-02-23T19:29:52.536Z,1.79
2019-02-23T19:32:28.499Z,1.76
2019-02-23T19:35:04.818Z,1.73
2019-02-23T19:37:39.788Z,1.70
2019-02-23T19:40:15.114Z,1.67
2019-02-23T19:42:50.586Z,1.65
2019-02-23T19:45:26.489Z,1.61
2019-02-23T19:48:01.824Z,1.56
2019-02-23T19:50:42.601Z,1.53
2019-02-23T19:53:18.185Z,1.49
2019-02-23T19:55:53.511Z,1.44
2019-02-23T19:58:29.730Z,1.39
2019-02-23T20:01:06.622Z,1.38
2019-02-23T20:03:43.858Z,1.34
2019-02-23T20:06:19.460Z,1.31
2019-02-23T20:08:53.033Z,1.29
2019-02-23T20:11:26.665Z,1.25
2019-02-23T20:13:59.160Z,1.24
2019-02-23T20:16:31.825Z,1.22
2019-02-23T20:19:05.498Z,1.16
2019-02-23T20:21:38.551Z,1.11
2019-02-23T20:24:11.935Z,1.09
2019-02-23T20:26:44.978Z,1.07
2019-02-23T20:29:17.945Z,1.05
2019-02-23T20:31:51.427Z,1.02
2019-02-23T20:34:23.887Z,1.00
2019-02-23T20:36:58.073Z,0.97
2019-02-23T20:39:31.881Z,0.94
2019-02-23T20:42:05.314Z,0.94
2019-02-23T20:44:39.134Z,0.92
2019-02-23T20:47:14.207Z,0.89
2019-02-23T20:49:47.755Z,0.87
2019-02-23T20:52:21.431Z,0.84
2019-02-23T20:54:56.695Z,0.79
2019-02-23T20:57:30.830Z,0.76
2019-02-23T21:00:04.159Z,0.75
2019-02-23T21:02:40.196Z,0.71
2019-02-23T21:05:14.553Z,0.67
2019-02-23T21:07:49.167Z,0.64
2019-02-23T21:10:22.958Z,0.64
2019-02-23T21:12:58.395Z,0.60
2019-02-23T21:15:32.277Z,0.58
2019-02-23T21:18:08.154Z,0.55
2019-02-23T21:20:42.205Z,0.53
2019-02-23T21:23:16.193Z,0.53
2019-02-23T21:25:50.538Z,0.52
2019-02-23T21:28:24.728Z,0.52
2019-02-23T21:30:59.472Z,0.49
2019-02-23T21:33:35.020Z,0.50
2019-02-23T21:36:15.038Z,0.50
2019-02-23T21:38:50.287Z,0.48
2019-02-23T21:41:25.633Z,0.46
2019-02-23T21:44:00.612Z,0.45
2019-02-23T21:46:35.015Z,0.45
2019-02-23T21:49:09.437Z,0.45
2019-02-23T21:51:44.736Z,0.44
2019-02-23T21:54:19.953Z,0.39
2019-02-23T21:56:56.573Z,0.38
2019-02-23T21:59:31.849Z,0.35
2019-02-23T22:02:07.816Z,0.31
2019-02-23T22:04:43.723Z,0.29
2019-02-23T22:07:19.125Z,0.28
2019-02-23T22:09:53.491Z,0.27
2019-02-23T22:12:28.142Z,0.26
2019-02-23T22:15:01.919Z,0.24
2019-02-23T22:17:35.783Z,0.22
2019-02-23T22:20:09.525Z,0.20
2019-02-23T22:22:44.613Z,0.18
2019-02-23T22:25:21.987Z,0.17
2019-02-23T22:27:59.866Z,0.17
2019-02-23T22:30:34.610Z,0.17
2019-02-23T22:33:10.046Z,0.16
2019-02-23T22:35:43.902Z,0.14
2019-02-23T22:38:19.900Z,0.12
2019-02-23T22:40:54.783Z,0.11
2019-02-23T22:43:29.279Z,0.08
2019-02-23T22:46:04.142Z,0.06
2019-02-23T22:48:38.416Z,0.07
2019-02-23T22:51:13.343Z,0.08
2019-02-23T22:53:47.188Z,0.08
2019-02-23T22:56:22.812Z,0.09
2019-02-23T22:58:57.825Z,0.08
2019-02-23T23:01:33.793Z,0.09
2019-02-23T23:04:07.774Z,0.11
2019-02-23T23:06:47.076Z,0.10
2019-02-23T23:09:21.736Z,0.12
2019-02-23T23:11:59.654Z,0.13
2019-02-23T23:14:36.269Z,0.13
2019-02-23T23:17:10.909Z,0.14
2019-02-23T23:19:46.739Z,0.13
2019-02-23T23:22:21.666Z,0.16
2019-02-23T23:24:55.703Z,0.19
2019-02-23T23:27:30.439Z,0.23
2019-02-23T23:30:05.536Z,0.28
2019-02-23T23:32:40.828Z,0.29
2019-02-23T23:35:15.180Z,0.31
2019-02-23T23:37:50.876Z,0.33
2019-02-23T23:40:24.940Z,0.39
2019-02-23T23:42:59.550Z,0.40
2019-02-23T23:45:33.478Z,0.42
2019-02-23T23:48:07.950Z,0.44
2019-02-23T23:50:42.365Z,0.48
2019-02-23T23:53:16.521Z,0.48
2019-02-23T23:55:50.324Z,0.41
2019-02-23T23:58:26.596Z,0.35
